createdAt,value
2023-03-11T00:04:22.998Z,100.00
2023-03-11T00:09:25.776Z,100.00
2023-03-11T00:14:28.937Z,100.00
2023-03-11T00:19:33.614Z,100.00
2023-03-11T00:24:42.786Z,100.00
2023-03-11T00:29:45.548Z,100.00
2023-03-11T00:35:00.029Z,100.00
2023-03-11T00:40:04.349Z,100.00
2023-03-11T00:45:08.273Z,100.00
2023-03-11T00:50:17.761Z,100.00
2023-03-11T00:55:22.784Z,100.00
2023-03-11T01:00:33.476Z,100.00
2023-03-11T01:05:39.944Z,100.00
2023-03-11T01:10:44.894Z,100.00
2023-03-11T01:15:49.066Z,100.00
2023-03-11T01:20:54.145Z,100.00
2023-03-11T01:25:56.873Z,100.00
2023-03-11T01:31:02.006Z,100.00
2023-03-11T01:36:10.166Z,100.00
2023-03-11T01:41:13.464Z,100.00
2023-03-11T01:46:19.207Z,100.00
2023-03-11T01:51:29.671Z,100.00
2023-03-11T01:56:33.730Z,100.00
2023-03-11T02:01:40.779Z,100.00
2023-03-11T02:06:45.534Z,100.00
2023-03-11T02:11:49.313Z,100.00
2023-03-11T02:16:52.751Z,100.00
2023-03-11T02:21:57.513Z,100.00
2023-03-11T02:27:04.015Z,100.00
2023-03-11T02:32:08.959Z,100.00
2023-03-11T02:37:18.377Z,100.00
2023-03-11T02:42:31.341Z,100.00
2023-03-11T02:47:36.319Z,100.00
2023-03-11T02:52:39.489Z,100.00
2023-03-11T02:57:46.628Z,100.00
2023-03-11T03:02:58.049Z,100.00
2023-03-11T03:08:02.728Z,100.00
2023-03-11T03:13:06.963Z,100.00
2023-03-11T03:18:09.987Z,100.00
2023-03-11T03:23:13.302Z,100.00
2023-03-11T03:28:19.158Z,100.00
2023-03-11T03:33:23.321Z,100.00
2023-03-11T03:38:26.122Z,100.00
2023-03-11T03:43:32.445Z,100.00
2023-03-11T03:48:35.553Z,100.00
2023-03-11T03:53:41.889Z,100.00
2023-03-11T03:58:46.358Z,100.00
2023-03-11T04:03:49.349Z,100.00
2023-03-11T04:08:53.387Z,100.00
2023-03-11T04:14:02.378Z,100.00
2023-03-11T04:19:06.647Z,100.00
2023-03-11T04:24:11.740Z,100.00
2023-03-11T04:29:19.670Z,100.00
2023-03-11T04:34:26.067Z,100.00
2023-03-11T04:39:29.255Z,100.00
2023-03-11T04:44:35.980Z,100.00
2023-03-11T04:49:41.743Z,100.00
2023-03-11T04:54:44.949Z,100.00
2023-03-11T04:59:49.313Z,100.00
2023-03-11T05:04:52.695Z,100.00
2023-03-11T05:09:55.970Z,100.00
2023-03-11T05:15:01.564Z,100.00
2023-03-11T05:20:07.878Z,100.00
2023-03-11T05:25:11.275Z,100.00
2023-03-11T05:30:16.310Z,100.00
2023-03-11T05:35:21.504Z,100.00
2023-03-11T05:40:26.720Z,100.00
2023-03-11T05:45:30.867Z,100.00
2023-03-11T05:50:35.983Z,100.00
2023-03-11T05:55:39.415Z,100.00
2023-03-11T06:00:43.967Z,100.00
2023-03-11T06:05:47.393Z,100.00
2023-03-11T06:10:50.306Z,100.00
2023-03-11T06:15:57.027Z,100.00
2023-03-11T06:21:02.370Z,100.00
2023-03-11T06:26:07.579Z,100.00
2023-03-11T06:31:19.319Z,100.00
2023-03-11T06:36:23.385Z,100.00
2023-03-11T06:41:27.156Z,100.00
2023-03-11T06:46:32.135Z,100.00
2023-03-11T06:51:37.268Z,100.00
2023-03-11T06:56:46.468Z,100.00
2023-03-11T07:01:51.754Z,100.00
2023-03-11T07:06:58.700Z,100.00
2023-03-11T07:12:02.028Z,100.00
2023-03-11T07:17:11.194Z,100.00
2023-03-11T07:22:20.945Z,100.00
2023-03-11T07:27:23.699Z,100.00
2023-03-11T07:32:30.880Z,100.00
2023-03-11T07:37:33.574Z,100.00
2023-03-11T07:42:36.228Z,100.00
2023-03-11T07:47:40.880Z,100.00
2023-03-11T07:52:44.006Z,100.00
2023-03-11T07:57:49.019Z,100.00
2023-03-11T08:02:53.429Z,100.00
2023-03-11T08:07:56.508Z,100.00
2023-03-11T08:13:02.314Z,100.00
2023-03-11T08:18:06.907Z,100.00
2023-03-11T08:23:12.337Z,100.00
2023-03-11T08:28:15.094Z,100.00
2023-03-11T08:33:22.271Z,100.00
2023-03-11T08:38:25.255Z,100.00
2023-03-11T08:43:29.109Z,99.43
2023-03-11T08:48:34.048Z,100.00
2023-03-11T08:53:37.603Z,100.00
2023-03-11T08:58:42.951Z,99.07
2023-03-11T09:03:47.733Z,98.32
2023-03-11T09:08:50.628Z,94.20
2023-03-11T09:13:53.626Z,90.25
2023-03-11T09:19:00.238Z,90.30
2023-03-11T09:24:04.214Z,90.28
2023-03-11T09:29:09.935Z,94.48
2023-03-11T09:34:16.124Z,91.71
2023-03-11T09:39:18.956Z,89.58
2023-03-11T09:44:28.340Z,91.58
2023-03-11T09:49:44.034Z,86.96
2023-03-11T09:54:49.795Z,84.38
2023-03-11T09:59:53.479Z,81.52
2023-03-11T10:05:02.601Z,83.95
2023-03-11T10:10:13.267Z,84.52
2023-03-11T10:15:25.389Z,86.53
2023-03-11T10:20:37.762Z,76.49
2023-03-11T10:25:54.658Z,74.94
2023-03-11T10:31:02.424Z,80.25
2023-03-11T10:36:12.073Z,74.56
2023-03-11T10:41:21.583Z,74.67
2023-03-11T10:46:27.484Z,85.84
2023-03-11T10:51:36.409Z,78.05
2023-03-11T10:56:41.611Z,83.60
2023-03-11T11:01:55.663Z,82.10
2023-03-11T11:07:00.702Z,74.84
2023-03-11T11:12:06.154Z,79.18
2023-03-11T11:17:18.916Z,78.09
2023-03-11T11:22:25.020Z,77.17
2023-03-11T11:27:30.801Z,81.88
2023-03-11T11:32:37.144Z,77.94
2023-03-11T11:37:46.206Z,75.35
2023-03-11T11:42:56.409Z,74.41
2023-03-11T11:48:07.763Z,77.61
2023-03-11T11:53:25.257Z,74.67
2023-03-11T11:58:28.542Z,72.85
2023-03-11T12:03:45.777Z,71.80
2023-03-11T12:09:00.498Z,73.42
2023-03-11T12:14:07.062Z,79.83
2023-03-11T12:19:24.562Z,71.46
2023-03-11T12:24:50.998Z,75.50
2023-03-11T12:29:57.165Z,74.43
2023-03-11T12:35:13.357Z,73.84
2023-03-11T12:40:49.092Z,72.76
2023-03-11T12:45:53.217Z,75.18
2023-03-11T12:50:56.564Z,70.86
2023-03-11T12:56:12.391Z,67.92
2023-03-11T13:01:38.693Z,66.45
2023-03-11T13:07:07.318Z,68.02
2023-03-11T13:12:41.523Z,71.84
2023-03-11T13:17:57.106Z,73.77
2023-03-11T13:23:21.119Z,68.63
2023-03-11T13:28:52.983Z,76.27
2023-03-11T13:33:57.441Z,70.80
2023-03-11T13:39:26.869Z,63.42
2023-03-11T13:44:38.147Z,66.33
2023-03-11T13:49:46.373Z,70.27
2023-03-11T13:55:04.863Z,68.08
2023-03-11T14:00:17.860Z,66.70
2023-03-11T14:05:51.221Z,68.18
2023-03-11T14:11:00.172Z,58.64
2023-03-11T14:16:17.905Z,72.46
2023-03-11T14:21:31.293Z,62.82
2023-03-11T14:26:37.887Z,67.55
2023-03-11T14:31:56.563Z,70.79
2023-03-11T14:37:03.488Z,72.88
2023-03-11T14:42:14.174Z,73.17
2023-03-11T14:47:46.763Z,68.85
2023-03-11T14:53:13.944Z,72.92
2023-03-11T14:59:12.529Z,77.01
2023-03-11T15:04:38.121Z,66.51
2023-03-11T15:09:55.254Z,70.25
2023-03-11T15:15:02.706Z,71.98
2023-03-11T15:20:46.407Z,73.74
2023-03-11T15:26:27.448Z,69.99
2023-03-11T15:31:53.571Z,69.22
2023-03-11T15:37:18.264Z,79.62
2023-03-11T15:42:27.049Z,78.71
2023-03-11T15:47:32.047Z,72.72
2023-03-11T15:52:37.672Z,79.10
2023-03-11T15:57:42.392Z,76.80
2023-03-11T16:02:46.835Z,73.16
2023-03-11T16:07:54.684Z,78.39
2023-03-11T16:13:04.580Z,74.05
2023-03-11T16:18:09.084Z,84.00
2023-03-11T16:23:20.364Z,80.87
2023-03-11T16:28:26.996Z,84.61
2023-03-11T16:33:29.955Z,82.75
2023-03-11T16:38:34.369Z,87.28
2023-03-11T16:43:42.046Z,83.71
2023-03-11T16:48:44.775Z,77.56
2023-03-11T16:53:47.942Z,89.03
2023-03-11T16:58:52.234Z,84.02
2023-03-11T17:03:55.177Z,82.83
2023-03-11T17:09:00.821Z,80.97
2023-03-11T17:14:15.808Z,89.61
2023-03-11T17:19:19.708Z,96.89
2023-03-11T17:24:22.589Z,97.20
2023-03-11T17:29:27.443Z,88.91
2023-03-11T17:34:30.161Z,92.26
2023-03-11T17:39:33.841Z,92.64
2023-03-11T17:44:51.043Z,95.25
2023-03-11T17:49:55.135Z,93.88
2023-03-11T17:54:58.651Z,95.93
2023-03-11T18:00:14.209Z,89.08
2023-03-11T18:05:18.753Z,93.17
2023-03-11T18:10:29.505Z,88.15
2023-03-11T18:15:36.251Z,91.63
2023-03-11T18:20:39.338Z,91.76
2023-03-11T18:25:45.235Z,93.55
2023-03-11T18:31:09.138Z,95.40
2023-03-11T18:36:14.000Z,95.94
2023-03-11T18:41:17.472Z,93.92
2023-03-11T18:46:26.370Z,87.71
2023-03-11T18:51:35.557Z,91.79
2023-03-11T18:56:41.828Z,93.12
2023-03-11T19:01:51.983Z,93.84
2023-03-11T19:06:55.500Z,97.88
2023-03-11T19:11:59.748Z,94.62
2023-03-11T19:17:05.853Z,97.20
2023-03-11T19:22:11.391Z,95.10
2023-03-11T19:27:15.027Z,97.22
2023-03-11T19:32:22.022Z,96.14
2023-03-11T19:37:25.385Z,96.23
2023-03-11T19:42:28.605Z,98.66
2023-03-11T19:47:36.211Z,95.93
2023-03-11T19:52:39.771Z,98.66
2023-03-11T19:58:01.859Z,98.44
2023-03-11T20:03:08.050Z,100.00
2023-03-11T20:08:14.195Z,100.00
2023-03-11T20:13:20.317Z,100.00
2023-03-11T20:18:24.905Z,100.00
2023-03-11T20:23:32.852Z,100.00
2023-03-11T20:28:40.868Z,100.00
2023-03-11T20:33:45.509Z,100.00
2023-03-11T20:38:51.875Z,100.00
2023-03-11T20:43:57.775Z,100.00
2023-03-11T20:49:02.495Z,100.00
2023-03-11T20:54:12.889Z,100.00
2023-03-11T20:59:16.940Z,100.00
2023-03-11T21:04:24.397Z,100.00
2023-03-11T21:09:27.428Z,100.00
2023-03-11T21:14:30.647Z,100.00
2023-03-11T21:19:35.323Z,100.00
2023-03-11T21:24:38.194Z,100.00
2023-03-11T21:29:47.789Z,100.00
2023-03-11T21:34:52.302Z,100.00
2023-03-11T21:39:58.532Z,100.00
2023-03-11T21:45:05.362Z,100.00
2023-03-11T21:50:12.117Z,100.00
2023-03-11T21:55:21.743Z,100.00
2023-03-11T22:00:25.141Z,100.00
2023-03-11T22:05:29.672Z,100.00
2023-03-11T22:10:33.725Z,100.00
2023-03-11T22:15:38.204Z,100.00
2023-03-11T22:20:42.684Z,100.00
2023-03-11T22:25:45.914Z,100.00
2023-03-11T22:30:55.724Z,100.00
2023-03-11T22:36:03.827Z,100.00
2023-03-11T22:41:11.511Z,100.00
2023-03-11T22:46:14.434Z,100.00
2023-03-11T22:51:20.046Z,100.00
2023-03-11T22:56:24.276Z,100.00
2023-03-11T23:01:34.177Z,100.00
2023-03-11T23:06:39.715Z,100.00
2023-03-11T23:12:04.927Z,100.00
2023-03-11T23:17:10.509Z,100.00
2023-03-11T23:22:17.764Z,100.00
2023-03-11T23:27:27.064Z,100.00
2023-03-11T23:32:32.496Z,100.00
2023-03-11T23:37:38.449Z,100.00
2023-03-11T23:42:50.890Z,100.00
2023-03-11T23:47:57.886Z,99.72
2023-03-11T23:53:10.276Z,99.41
2023-03-11T23:58:13.844Z,100.00
